createdAt,value
2023-04-09T05:04:47.537Z,29.52
2023-04-09T05:09:52.255Z,29.52
2023-04-09T05:15:00.570Z,28.08
2023-04-09T05:20:02.105Z,27.00
2023-04-09T05:25:11.704Z,29.58
2023-04-09T05:30:16.358Z,30.58
2023-04-09T05:35:17.954Z,30.80
2023-04-09T05:40:20.168Z,28.83
2023-04-09T05:45:21.719Z,25.80
2023-04-09T05:50:27.039Z,28.63
2023-04-09T05:55:32.382Z,29.80
2023-04-09T06:00:35.698Z,27.15
2023-04-09T06:05:37.649Z,26.25
2023-04-09T06:10:41.044Z,29.27
2023-04-09T06:15:43.101Z,29.20
2023-04-09T06:20:44.722Z,25.25
2023-04-09T06:25:46.178Z,31.48
2023-04-09T06:30:48.964Z,29.63
2023-04-09T06:35:50.577Z,30.70
2023-04-09T06:40:52.272Z,29.88
2023-04-09T06:45:53.711Z,29.98
2023-04-09T06:50:55.201Z,31.20
2023-04-09T06:55:57.219Z,28.40
2023-04-09T07:00:59.442Z,32.15
2023-04-09T07:06:01.064Z,29.25
2023-04-09T07:11:03.330Z,30.33
2023-04-09T07:16:05.202Z,30.33
2023-04-09T07:21:06.900Z,33.78
2023-04-09T07:26:08.532Z,29.25
2023-04-09T07:31:10.738Z,30.67
2023-04-09T07:36:12.493Z,28.73
2023-04-09T07:41:14.125Z,26.83
2023-04-09T07:46:20.630Z,26.30
2023-04-09T07:51:22.118Z,26.50
2023-04-09T07:56:23.578Z,25.42
2023-04-09T08:01:26.058Z,25.10
2023-04-09T08:06:27.516Z,24.83
2023-04-09T08:11:28.981Z,29.20
2023-04-09T08:16:30.560Z,25.48
2023-04-09T08:21:32.257Z,30.35
2023-04-09T08:26:33.764Z,28.23
2023-04-09T08:31:37.246Z,27.02
2023-04-09T08:36:38.772Z,28.10
2023-04-09T08:41:45.694Z,25.95
2023-04-09T08:46:47.120Z,25.30
2023-04-09T08:51:49.184Z,31.48
2023-04-09T08:56:50.649Z,26.13
2023-04-09T09:02:08.216Z,25.63
2023-04-09T09:07:09.974Z,26.55
2023-04-09T09:12:13.205Z,27.42
2023-04-09T09:17:15.274Z,26.73
2023-04-09T09:22:17.439Z,28.00
2023-04-09T09:27:40.346Z,26.98
2023-04-09T09:32:42.537Z,28.70
2023-04-09T09:37:44.114Z,28.07
2023-04-09T09:42:56.911Z,29.08
2023-04-09T09:47:58.451Z,23.30
2023-04-09T09:53:07.514Z,24.33
2023-04-09T09:58:16.689Z,24.83
2023-04-09T10:03:24.907Z,24.20
2023-04-09T10:08:28.158Z,23.23
2023-04-09T10:13:35.216Z,25.35
2023-04-09T10:18:36.877Z,23.58
2023-04-09T10:23:42.434Z,23.58
2023-04-09T10:28:43.844Z,23.60
2023-04-09T10:33:45.896Z,21.77
2023-04-09T10:38:48.160Z,25.27
2023-04-09T10:43:50.822Z,27.35
2023-04-09T10:54:35.899Z,26.27
2023-04-09T10:59:37.280Z,24.50
2023-04-09T11:05:04.474Z,24.40
2023-04-09T11:10:06.757Z,25.73
2023-04-09T11:15:16.530Z,26.40
2023-04-09T11:20:21.422Z,22.98
2023-04-09T11:25:27.132Z,23.95
2023-04-09T11:30:28.981Z,23.30
2023-04-09T11:35:30.758Z,27.63
2023-04-09T11:40:32.340Z,25.00
2023-04-09T11:45:33.847Z,24.85
2023-04-09T11:50:36.450Z,26.25
2023-04-09T12:00:41.328Z,27.52
2023-04-09T12:05:50.462Z,30.38
2023-04-09T12:10:53.843Z,26.27
2023-04-09T12:15:57.472Z,26.65
2023-04-09T12:21:01.302Z,28.83
2023-04-09T12:31:04.387Z,28.98
2023-04-09T12:36:06.321Z,27.00
2023-04-09T12:41:08.039Z,26.95
2023-04-09T12:46:09.975Z,28.83
2023-04-09T12:51:14.403Z,30.10
2023-04-09T12:56:16.007Z,28.50
2023-04-09T13:01:18.072Z,28.43
2023-04-09T13:06:19.577Z,28.73
2023-04-09T13:11:21.191Z,25.42
2023-04-09T13:16:22.796Z,27.83
2023-04-09T13:21:24.417Z,26.47
2023-04-09T13:26:25.997Z,22.47
2023-04-09T13:31:27.685Z,24.73
2023-04-09T13:36:30.173Z,22.42
2023-04-09T13:46:33.844Z,19.75
2023-04-09T13:51:35.456Z,20.03
2023-04-09T13:56:37.823Z,22.13
2023-04-09T14:06:42.356Z,20.50
2023-04-09T14:11:43.798Z,20.95
2023-04-09T14:16:46.838Z,19.92
2023-04-09T14:21:48.375Z,19.83
2023-04-09T14:26:53.004Z,20.52
2023-04-09T14:31:56.714Z,18.20
2023-04-09T14:36:58.721Z,18.25
2023-04-09T14:42:00.929Z,16.33
2023-04-09T14:47:02.608Z,18.85
2023-04-09T14:52:04.380Z,17.37
2023-04-09T14:57:06.803Z,17.80
2023-04-09T15:07:09.779Z,16.50
2023-04-09T15:12:11.263Z,19.40
2023-04-09T15:17:12.741Z,13.60
2023-04-09T15:22:14.246Z,13.07
2023-04-09T15:27:15.857Z,11.53
2023-04-09T15:32:17.476Z,12.10
2023-04-09T15:37:18.895Z,13.23
2023-04-09T15:42:22.640Z,11.43
2023-04-09T15:47:24.472Z,12.50
2023-04-09T15:52:26.652Z,12.73
2023-04-09T15:57:28.742Z,12.45
2023-04-09T16:02:30.329Z,11.20
2023-04-09T16:07:31.867Z,12.80
2023-04-09T16:12:33.290Z,11.68
2023-04-09T16:17:40.532Z,15.88
2023-04-09T16:22:42.857Z,14.13
2023-04-09T16:27:44.305Z,13.40
2023-04-09T16:32:45.794Z,16.15
2023-04-09T16:37:47.380Z,14.23
2023-04-09T16:42:48.816Z,17.60
2023-04-09T16:47:53.991Z,13.88
2023-04-09T16:52:55.583Z,14.20
2023-04-09T16:57:57.220Z,16.63
2023-04-09T17:02:58.861Z,18.85
2023-04-09T17:08:02.024Z,15.80
2023-04-09T17:13:03.643Z,28.60
2023-04-09T17:18:05.238Z,19.50
2023-04-09T17:23:07.201Z,21.10
2023-04-09T17:28:09.098Z,17.27
2023-04-09T17:33:12.104Z,17.37
2023-04-09T17:38:20.285Z,16.85
2023-04-09T17:43:21.801Z,15.70
2023-04-09T17:48:23.283Z,17.98
2023-04-09T17:53:24.751Z,26.38
2023-04-09T17:58:26.913Z,24.33
2023-04-09T18:03:28.506Z,24.40
2023-04-09T18:08:30.244Z,22.63
2023-04-09T18:13:31.646Z,20.88
2023-04-09T18:18:33.062Z,19.27
2023-04-09T18:23:34.712Z,21.85
2023-04-09T18:28:36.533Z,23.60
2023-04-09T18:33:37.956Z,27.38
2023-04-09T18:38:39.510Z,27.20
2023-04-09T18:43:41.190Z,27.83
2023-04-09T18:48:43.337Z,26.13
2023-04-09T18:53:45.052Z,24.70
2023-04-09T18:58:51.785Z,25.48
2023-04-09T19:03:53.805Z,35.13
2023-04-09T19:08:58.101Z,28.27
2023-04-09T19:13:59.606Z,29.02
2023-04-09T19:19:01.107Z,26.30
2023-04-09T19:24:04.908Z,29.48
2023-04-09T19:29:07.723Z,35.38
2023-04-09T19:34:10.907Z,33.55
2023-04-09T19:39:12.382Z,32.10
2023-04-09T19:44:16.793Z,31.23
2023-04-09T19:49:18.226Z,26.80
2023-04-09T19:54:19.750Z,24.35
2023-04-09T19:59:21.330Z,24.63
2023-04-09T20:04:25.766Z,23.25
2023-04-09T20:09:28.972Z,58.47
2023-04-09T20:14:31.336Z,40.38
2023-04-09T20:19:32.892Z,31.38
2023-04-09T20:24:35.234Z,22.10
2023-04-09T20:29:37.100Z,23.65
2023-04-09T20:34:38.736Z,20.05
2023-04-09T20:39:40.693Z,18.92
2023-04-09T20:44:43.141Z,17.75
2023-04-09T20:49:46.353Z,21.65
2023-04-09T20:54:47.876Z,21.70
2023-04-09T20:59:53.569Z,23.88
2023-04-09T21:04:56.342Z,34.25
2023-04-09T21:09:57.935Z,26.95
2023-04-09T21:15:01.357Z,23.02
2023-04-09T21:20:02.887Z,20.92
2023-04-09T21:25:04.814Z,20.58
2023-04-09T21:30:06.976Z,20.88
2023-04-09T21:35:08.440Z,24.43
2023-04-09T21:40:10.212Z,23.30
2023-04-09T21:45:11.793Z,24.20
2023-04-09T21:50:13.655Z,21.40
2023-04-09T21:55:15.293Z,22.85
